createdAt,value
2022-10-03T00:00:04.621Z,100559.48
2022-10-03T00:01:54.454Z,100559.65
2022-10-03T00:03:35.032Z,100559.02
2022-10-03T00:04:58.598Z,100560.02
2022-10-03T00:06:13.611Z,100562.57
2022-10-03T00:07:27.831Z,100562.02
2022-10-03T00:09:04.695Z,100564.75
2022-10-03T00:10:28.624Z,100564.02
2022-10-03T00:11:39.360Z,100568.54
2022-10-03T00:12:50.032Z,100571.95
2022-10-03T00:14:13.305Z,100568.27
2022-10-03T00:15:56.773Z,100570.61
2022-10-03T00:17:10.733Z,100571.16
2022-10-03T00:18:35.594Z,100569.66
2022-10-03T00:19:51.419Z,100568.57
2022-10-03T00:21:08.707Z,100570.10
2022-10-03T00:22:31.918Z,100566.12
2022-10-03T00:24:12.161Z,100566.89
2022-10-03T00:25:27.756Z,100565.29
2022-10-03T00:26:38.578Z,100561.42
2022-10-03T00:27:50.703Z,100564.95
2022-10-03T00:29:13.865Z,100562.66
2022-10-03T00:30:22.271Z,100561.11
2022-10-03T00:31:35.505Z,100560.27
2022-10-03T00:33:14.369Z,100561.04
2022-10-03T00:34:40.543Z,100559.36
2022-10-03T00:35:54.047Z,100559.86
2022-10-03T00:37:04.858Z,100556.04
2022-10-03T00:38:06.464Z,100558.97
2022-10-03T00:39:18.659Z,100554.49
2022-10-03T00:40:38.242Z,100557.66
2022-10-03T00:42:14.274Z,100555.96
2022-10-03T00:43:33.980Z,100550.30
2022-10-03T00:45:07.647Z,100552.30
2022-10-03T00:46:33.947Z,100548.95
2022-10-03T00:48:12.602Z,100544.73
2022-10-03T00:49:52.383Z,100547.33
2022-10-03T00:51:30.546Z,100543.55
2022-10-03T00:52:52.262Z,100541.95
2022-10-03T00:54:08.181Z,100541.96
2022-10-03T00:55:27.113Z,100537.44
2022-10-03T00:57:05.995Z,100540.92
2022-10-03T00:58:27.810Z,100536.27
2022-10-03T00:59:48.296Z,100539.36
2022-10-03T01:00:51.126Z,100540.46
2022-10-03T01:01:53.534Z,100537.16
2022-10-03T01:03:22.785Z,100540.00
2022-10-03T01:04:27.133Z,100535.12
2022-10-03T01:05:50.921Z,100532.61
2022-10-03T01:07:02.795Z,100533.73
2022-10-03T01:08:07.160Z,100537.05
2022-10-03T01:09:21.312Z,100534.27
2022-10-03T01:10:41.195Z,100534.80
2022-10-03T01:12:17.306Z,100535.16
2022-10-03T01:13:33.888Z,100533.22
2022-10-03T01:15:02.690Z,100531.70
2022-10-03T01:16:16.637Z,100532.07
2022-10-03T01:17:27.581Z,100527.06
2022-10-03T01:18:55.705Z,100529.42
2022-10-03T01:20:03.964Z,100532.62
2022-10-03T01:21:32.981Z,100530.69
2022-10-03T01:22:49.870Z,100533.09
2022-10-03T01:23:51.821Z,100531.91
2022-10-03T01:25:01.532Z,100532.78
2022-10-03T01:26:24.848Z,100538.33
2022-10-03T01:28:10.135Z,100533.54
2022-10-03T01:29:35.992Z,100534.13
2022-10-03T01:31:32.237Z,100537.34
2022-10-03T01:32:48.055Z,100539.70
2022-10-03T01:34:17.460Z,100538.26
2022-10-03T01:35:47.306Z,100539.87
2022-10-03T01:37:07.290Z,100538.31
2022-10-03T01:38:19.736Z,100542.28
2022-10-03T01:39:34.956Z,100548.17
2022-10-03T01:40:36.616Z,100541.48
2022-10-03T01:41:58.435Z,100542.41
2022-10-03T01:43:02.164Z,100536.52
2022-10-03T01:44:13.633Z,100534.61
2022-10-03T01:45:28.827Z,100523.34
2022-10-03T01:46:51.758Z,100529.11
2022-10-03T01:48:12.085Z,100532.52
2022-10-03T01:49:25.227Z,100535.85
2022-10-03T01:50:47.773Z,100531.88
2022-10-03T01:51:59.480Z,100538.98
2022-10-03T01:53:14.247Z,100536.36
2022-10-03T01:54:42.356Z,100530.31
2022-10-03T01:56:04.690Z,100535.48
2022-10-03T01:57:21.345Z,100538.81
2022-10-03T01:58:46.493Z,100533.39
2022-10-03T02:00:23.665Z,100535.61
2022-10-03T02:02:02.568Z,100532.36
2022-10-03T02:03:10.238Z,100538.34
2022-10-03T02:04:26.799Z,100539.48
2022-10-03T02:05:47.437Z,100537.73
2022-10-03T02:07:05.017Z,100540.38
2022-10-03T02:08:30.197Z,100536.38
2022-10-03T02:09:59.598Z,100536.88
2022-10-03T02:11:08.673Z,100540.62
2022-10-03T02:12:13.188Z,100537.55
2022-10-03T02:13:46.612Z,100544.95
2022-10-03T02:15:13.676Z,100548.05
2022-10-03T02:16:41.926Z,100546.60
2022-10-03T02:18:02.035Z,100542.13
2022-10-03T02:19:10.592Z,100549.98
2022-10-03T02:20:27.659Z,100556.11
2022-10-03T02:21:31.705Z,100555.48
2022-10-03T02:22:44.576Z,100555.98
2022-10-03T02:23:48.123Z,100553.70
2022-10-03T02:25:02.225Z,100553.60
2022-10-03T02:26:31.368Z,100553.81
2022-10-03T02:27:55.411Z,100554.89
2022-10-03T02:29:12.361Z,100553.15
2022-10-03T02:30:14.091Z,100558.23
2022-10-03T02:32:04.566Z,100558.14
2022-10-03T02:33:36.310Z,100556.36
2022-10-03T02:35:10.556Z,100564.31
2022-10-03T02:36:17.948Z,100565.23
2022-10-03T02:37:25.181Z,100571.88
2022-10-03T02:38:52.160Z,100567.27
2022-10-03T02:40:37.353Z,100573.22
2022-10-03T02:42:00.178Z,100572.50
2022-10-03T02:43:31.155Z,100575.91
2022-10-03T02:45:09.821Z,100579.42
2022-10-03T02:46:48.884Z,100585.88
2022-10-03T02:48:27.450Z,100583.98
2022-10-03T02:49:53.817Z,100590.65
2022-10-03T02:50:55.238Z,100589.18
2022-10-03T02:52:15.847Z,100588.50
2022-10-03T02:53:48.899Z,100594.02
2022-10-03T02:55:08.661Z,100595.54
2022-10-03T02:56:13.071Z,100595.96
2022-10-03T02:57:26.817Z,100594.19
2022-10-03T02:59:10.208Z,100597.38
2022-10-03T03:00:16.493Z,100599.29
2022-10-03T03:01:36.837Z,100601.90
2022-10-03T03:02:47.492Z,100597.84
2022-10-03T03:04:16.848Z,100600.08
2022-10-03T03:05:36.043Z,100603.23
2022-10-03T03:06:46.335Z,100602.64
2022-10-03T03:07:50.678Z,100604.47
2022-10-03T03:09:17.544Z,100604.52
2022-10-03T03:10:38.015Z,100609.98
2022-10-03T03:12:07.507Z,100611.77
2022-10-03T03:13:27.878Z,100613.86
2022-10-03T03:14:56.939Z,100614.09
2022-10-03T03:16:16.553Z,100617.86
2022-10-03T03:17:18.298Z,100616.18
2022-10-03T03:18:22.782Z,100622.07
2022-10-03T03:19:40.812Z,100615.88
2022-10-03T03:21:01.366Z,100618.44
2022-10-03T03:22:11.761Z,100623.14
2022-10-03T03:23:35.630Z,100627.34
2022-10-03T03:25:21.342Z,100623.63
2022-10-03T03:26:55.059Z,100626.33
2022-10-03T03:28:21.456Z,100625.18
2022-10-03T03:29:42.211Z,100627.19
2022-10-03T03:31:00.073Z,100627.39
2022-10-03T03:32:07.367Z,100628.85
2022-10-03T03:33:35.174Z,100632.90
2022-10-03T03:34:48.746Z,100632.45
2022-10-03T03:36:08.701Z,100631.34
2022-10-03T03:37:31.478Z,100637.90
2022-10-03T03:38:55.885Z,100636.10
2022-10-03T03:40:14.705Z,100641.52
2022-10-03T03:41:44.681Z,100649.80
2022-10-03T03:43:14.632Z,100644.68
2022-10-03T03:44:19.170Z,100642.23
2022-10-03T03:45:49.027Z,100642.13
2022-10-03T03:47:14.020Z,100645.93
2022-10-03T03:48:37.696Z,100642.88
2022-10-03T03:50:12.955Z,100644.05
2022-10-03T03:51:26.422Z,100642.80
2022-10-03T03:52:46.982Z,100644.71
2022-10-03T03:53:54.486Z,100642.56
2022-10-03T03:55:40.355Z,100646.95
2022-10-03T03:56:59.470Z,100649.13
2022-10-03T03:58:01.385Z,100650.54
2022-10-03T03:59:38.482Z,100650.66
2022-10-03T04:01:03.503Z,100655.06
2022-10-03T04:02:43.281Z,100659.52
2022-10-03T04:04:03.654Z,100665.60
2022-10-03T04:05:34.331Z,100664.10
2022-10-03T04:06:50.798Z,100671.64
2022-10-03T04:07:52.323Z,100677.74
2022-10-03T04:09:31.350Z,100668.65
2022-10-03T04:10:54.182Z,100680.46
2022-10-03T04:12:16.638Z,100677.38
2022-10-03T04:13:47.138Z,100684.61
2022-10-03T04:15:08.709Z,100681.83
2022-10-03T04:17:16.298Z,100684.36
2022-10-03T04:18:57.834Z,100687.23
2022-10-03T04:20:10.541Z,100685.70
2022-10-03T04:21:19.421Z,100687.77
2022-10-03T04:22:50.524Z,100692.98
2022-10-03T04:24:20.165Z,100689.23
2022-10-03T04:25:27.889Z,100694.06
2022-10-03T04:26:47.817Z,100695.98
2022-10-03T04:27:49.450Z,100695.25
2022-10-03T04:29:32.400Z,100695.48
2022-10-03T04:30:37.313Z,100700.73
2022-10-03T04:31:56.483Z,100698.94
2022-10-03T04:33:24.803Z,100705.35
2022-10-03T04:34:32.182Z,100700.86
2022-10-03T04:36:07.639Z,100705.41
2022-10-03T04:37:23.711Z,100705.61
2022-10-03T04:38:43.797Z,100704.86
2022-10-03T04:39:51.082Z,100711.60
2022-10-03T04:41:11.836Z,100710.39
2022-10-03T04:42:13.507Z,100716.53
2022-10-03T04:43:39.730Z,100713.71
2022-10-03T04:45:19.826Z,100720.52
2022-10-03T04:46:39.050Z,100720.27
2022-10-03T04:47:54.299Z,100724.20
2022-10-03T04:49:01.890Z,100722.05
2022-10-03T04:50:25.118Z,100727.16
2022-10-03T04:51:55.553Z,100727.69
2022-10-03T04:53:25.065Z,100731.77
2022-10-03T04:54:39.373Z,100728.62
2022-10-03T04:55:45.275Z,100730.70
2022-10-03T04:56:52.947Z,100732.33
2022-10-03T04:58:16.182Z,100736.04
2022-10-03T04:59:42.999Z,100738.95
2022-10-03T05:01:05.702Z,100735.19
2022-10-03T05:02:16.456Z,100744.65
2022-10-03T05:03:33.356Z,100744.64
2022-10-03T05:04:44.705Z,100744.63
2022-10-03T05:05:56.584Z,100741.77
2022-10-03T05:07:13.728Z,100741.95
2022-10-03T05:08:45.984Z,100741.02
2022-10-03T05:09:52.036Z,100747.39
2022-10-03T05:11:07.469Z,100743.01
2022-10-03T05:12:27.286Z,100752.23
2022-10-03T05:13:50.666Z,100752.35
2022-10-03T05:15:10.287Z,100749.10
2022-10-03T05:16:18.941Z,100755.83
2022-10-03T05:17:29.619Z,100752.88
2022-10-03T05:18:44.927Z,100755.85
2022-10-03T05:19:53.069Z,100757.38
2022-10-03T05:20:54.793Z,100757.18
2022-10-03T05:22:29.659Z,100761.19
2022-10-03T05:24:02.196Z,100762.87
2022-10-03T05:25:22.307Z,100769.16
2022-10-03T05:26:44.690Z,100767.96
2022-10-03T05:27:53.768Z,100760.34
2022-10-03T05:29:20.357Z,100769.55
2022-10-03T05:30:34.479Z,100773.91
2022-10-03T05:31:46.170Z,100775.17
2022-10-03T05:33:04.984Z,100776.89
2022-10-03T05:34:33.915Z,100785.88
2022-10-03T05:35:45.138Z,100787.90
2022-10-03T05:37:09.258Z,100791.54
2022-10-03T05:38:25.877Z,100794.31
2022-10-03T05:39:45.127Z,100790.35
2022-10-03T05:41:18.584Z,100796.02
2022-10-03T05:42:50.590Z,100800.64
2022-10-03T05:44:10.787Z,100809.26
2022-10-03T05:45:12.343Z,100801.98
2022-10-03T05:46:34.905Z,100811.79
2022-10-03T05:47:51.029Z,100815.06
2022-10-03T05:49:23.186Z,100818.52
2022-10-03T05:50:34.439Z,100822.12
2022-10-03T05:51:45.807Z,100820.90
2022-10-03T05:53:18.351Z,100818.98
2022-10-03T05:54:54.644Z,100827.69
2022-10-03T05:56:38.926Z,100820.39
2022-10-03T05:58:01.518Z,100838.00
2022-10-03T05:59:09.183Z,100836.05
2022-10-03T06:00:50.325Z,100840.16
2022-10-03T06:02:32.107Z,100842.99
2022-10-03T06:04:15.030Z,100841.86
2022-10-03T06:05:39.403Z,100843.71
2022-10-03T06:07:02.676Z,100843.80
2022-10-03T06:08:32.106Z,100859.52
2022-10-03T06:09:42.603Z,100867.27
2022-10-03T06:11:17.119Z,100866.77
2022-10-03T06:12:36.838Z,100863.74
2022-10-03T06:14:05.404Z,100870.87
2022-10-03T06:15:33.125Z,100873.14
2022-10-03T06:16:55.863Z,100871.31
2022-10-03T06:18:16.040Z,100879.50
2022-10-03T06:19:53.141Z,100885.55
2022-10-03T06:21:13.458Z,100887.59
2022-10-03T06:22:33.164Z,100892.55
2022-10-03T06:23:46.696Z,100893.55
2022-10-03T06:25:16.353Z,100897.52
2022-10-03T06:26:44.788Z,100904.12
2022-10-03T06:28:17.646Z,100895.99
2022-10-03T06:29:42.114Z,100900.48
2022-10-03T06:31:32.072Z,100904.59
2022-10-03T06:33:15.512Z,100906.77
2022-10-03T06:34:30.781Z,100911.95
2022-10-03T06:35:45.742Z,100907.35
2022-10-03T06:37:00.448Z,100914.52
2022-10-03T06:38:20.746Z,100911.78
2022-10-03T06:39:41.077Z,100917.23
2022-10-03T06:41:07.105Z,100917.75
2022-10-03T06:42:36.963Z,100922.11
2022-10-03T06:44:00.576Z,100924.23
2022-10-03T06:45:02.230Z,100925.02
2022-10-03T06:46:09.867Z,100926.09
2022-10-03T06:47:36.373Z,100929.43
2022-10-03T06:48:57.808Z,100932.34
2022-10-03T06:50:11.998Z,100933.79
2022-10-03T06:51:42.797Z,100945.15
2022-10-03T06:52:48.519Z,100944.27
2022-10-03T06:54:08.755Z,100944.40
2022-10-03T06:55:40.020Z,100951.09
2022-10-03T06:57:03.979Z,100952.46
2022-10-03T06:58:30.343Z,100954.78
2022-10-03T07:00:09.451Z,100958.05
2022-10-03T07:01:11.382Z,100960.38
2022-10-03T07:02:45.725Z,100963.07
2022-10-03T07:03:50.608Z,100970.77
2022-10-03T07:05:40.514Z,100965.36
2022-10-03T07:07:04.692Z,100970.34
2022-10-03T07:08:15.799Z,100970.86
2022-10-03T07:09:53.077Z,100972.92
2022-10-03T07:11:28.716Z,100979.22
2022-10-03T07:12:51.991Z,100975.25
2022-10-03T07:13:56.640Z,100976.23
2022-10-03T07:15:07.021Z,100979.09
2022-10-03T07:16:27.882Z,100983.06
2022-10-03T07:17:58.799Z,100986.28
2022-10-03T07:19:06.074Z,100990.91
2022-10-03T07:20:48.102Z,100988.95
2022-10-03T07:22:19.289Z,100995.54
2022-10-03T07:23:32.990Z,100996.36
2022-10-03T07:24:52.948Z,100995.77
2022-10-03T07:26:13.112Z,100994.98
2022-10-03T07:27:26.980Z,100996.20
2022-10-03T07:28:37.669Z,101000.70
2022-10-03T07:29:58.051Z,100998.77
2022-10-03T07:31:18.537Z,101003.33
2022-10-03T07:32:34.936Z,101004.11
2022-10-03T07:33:48.580Z,101003.59
2022-10-03T07:35:08.418Z,101002.39
2022-10-03T07:36:50.880Z,101008.65
2022-10-03T07:38:35.735Z,101007.20
2022-10-03T07:40:05.905Z,101008.27
2022-10-03T07:41:24.209Z,101005.80
2022-10-03T07:42:53.428Z,101010.05
2022-10-03T07:44:15.461Z,101008.14
2022-10-03T07:45:20.006Z,101009.60
2022-10-03T07:46:21.788Z,101011.91
2022-10-03T07:47:38.528Z,101014.25
2022-10-03T07:49:01.889Z,101014.04
2022-10-03T07:50:09.545Z,101009.77
2022-10-03T07:51:21.046Z,101012.92
2022-10-03T07:52:41.305Z,101015.05
2022-10-03T07:54:10.038Z,101011.69
2022-10-03T07:55:42.052Z,101015.94
2022-10-03T07:56:52.620Z,101018.58
2022-10-03T07:57:56.866Z,101019.54
2022-10-03T07:59:27.486Z,101017.86
2022-10-03T08:00:43.995Z,101023.37
2022-10-03T08:02:08.629Z,101026.73
2022-10-03T08:03:46.601Z,101029.85
2022-10-03T08:05:30.404Z,101033.51
2022-10-03T08:06:42.830Z,101045.63
2022-10-03T08:08:03.329Z,101051.02
2022-10-03T08:09:11.228Z,101045.73
2022-10-03T08:10:22.112Z,101062.83
2022-10-03T08:11:35.558Z,101061.16
2022-10-03T08:13:05.586Z,101066.16
2022-10-03T08:14:41.974Z,101073.77
2022-10-03T08:16:20.094Z,101077.08
2022-10-03T08:17:36.831Z,101079.80
2022-10-03T08:18:57.020Z,101082.42
2022-10-03T08:20:22.567Z,101087.48
2022-10-03T08:22:11.235Z,101080.45
2022-10-03T08:23:19.183Z,101083.25
2022-10-03T08:24:47.724Z,101087.92
2022-10-03T08:26:01.108Z,101088.08
2022-10-03T08:27:51.265Z,101086.71
2022-10-03T08:29:23.102Z,101087.18
2022-10-03T08:30:53.936Z,101092.09
2022-10-03T08:32:17.476Z,101098.95
2022-10-03T08:33:31.503Z,101096.55
2022-10-03T08:34:45.118Z,101106.36
2022-10-03T08:35:59.013Z,101114.91
2022-10-03T08:37:21.466Z,101115.05
2022-10-03T08:38:28.101Z,101120.09
2022-10-03T08:39:48.954Z,101129.55
2022-10-03T08:41:27.534Z,101123.83
2022-10-03T08:42:37.952Z,101123.82
2022-10-03T08:44:05.915Z,101127.65
2022-10-03T08:45:35.395Z,101119.24
2022-10-03T08:46:55.590Z,101120.89
2022-10-03T08:48:00.373Z,101121.66
2022-10-03T08:49:41.205Z,101123.63
2022-10-03T08:51:18.075Z,101125.08
2022-10-03T08:52:25.955Z,101128.75
2022-10-03T08:53:34.443Z,101129.96
2022-10-03T08:55:01.749Z,101130.05
2022-10-03T08:56:14.575Z,101128.63
2022-10-03T08:57:37.935Z,101125.65
2022-10-03T08:58:54.621Z,101133.14
2022-10-03T09:00:02.854Z,101130.36
2022-10-03T09:01:37.453Z,101139.29
2022-10-03T09:03:20.458Z,101138.94
2022-10-03T09:04:31.881Z,101136.20
2022-10-03T09:05:39.549Z,101138.68
2022-10-03T09:07:12.082Z,101144.67
2022-10-03T09:08:32.792Z,101139.74
2022-10-03T09:09:46.243Z,101146.33
2022-10-03T09:11:15.852Z,101142.95
2022-10-03T09:12:52.050Z,101148.83
2022-10-03T09:14:26.605Z,101144.31
2022-10-03T09:15:52.997Z,101146.64
2022-10-03T09:17:02.164Z,101144.38
2022-10-03T09:18:06.951Z,101149.23
2022-10-03T09:19:11.596Z,101151.77
2022-10-03T09:20:16.421Z,101145.04
2022-10-03T09:21:37.175Z,101147.34
2022-10-03T09:23:02.243Z,101148.40
2022-10-03T09:24:41.283Z,101143.49
2022-10-03T09:26:10.987Z,101144.46
2022-10-03T09:27:18.231Z,101150.77
2022-10-03T09:28:35.214Z,101150.38
2022-10-03T09:29:52.024Z,101150.23
2022-10-03T09:31:28.790Z,101149.21
2022-10-03T09:32:53.344Z,101153.41
2022-10-03T09:34:23.191Z,101158.66
2022-10-03T09:35:47.771Z,101154.81
2022-10-03T09:37:24.501Z,101152.45
2022-10-03T09:38:38.144Z,101154.59
2022-10-03T09:40:17.375Z,101154.83
2022-10-03T09:41:32.290Z,101158.45
2022-10-03T09:43:13.091Z,101162.64
2022-10-03T09:44:20.651Z,101157.06
2022-10-03T09:45:43.360Z,101168.04
2022-10-03T09:47:28.041Z,101166.25
2022-10-03T09:48:36.284Z,101163.35
2022-10-03T09:49:37.834Z,101157.85
2022-10-03T09:50:57.808Z,101160.39
2022-10-03T09:52:40.117Z,101162.35
2022-10-03T09:54:16.367Z,101163.95
2022-10-03T09:55:30.355Z,101161.02
2022-10-03T09:56:38.324Z,101163.84
2022-10-03T09:57:46.098Z,101165.67
2022-10-03T09:59:13.190Z,101165.24
2022-10-03T10:00:45.229Z,101166.91
2022-10-03T10:02:17.594Z,101164.48
2022-10-03T10:03:48.676Z,101164.70
2022-10-03T10:05:35.278Z,101169.87
2022-10-03T10:07:16.053Z,101169.60
2022-10-03T10:08:41.789Z,101173.31
2022-10-03T10:10:06.786Z,101175.38
2022-10-03T10:11:35.272Z,101176.94
2022-10-03T10:13:11.083Z,101174.64
2022-10-03T10:14:56.687Z,101177.09
2022-10-03T10:16:25.729Z,101187.21
2022-10-03T10:17:46.104Z,101190.45
2022-10-03T10:19:24.944Z,101195.80
2022-10-03T10:21:08.229Z,101195.65
2022-10-03T10:22:09.827Z,101198.95
2022-10-03T10:23:20.213Z,101196.13
2022-10-03T10:24:35.833Z,101195.95
2022-10-03T10:25:58.546Z,101192.87
2022-10-03T10:27:17.454Z,101194.84
2022-10-03T10:29:08.151Z,101197.19
2022-10-03T10:30:15.799Z,101201.96
2022-10-03T10:31:48.571Z,101204.89
2022-10-03T10:33:08.692Z,101208.20
2022-10-03T10:34:45.537Z,101206.84
2022-10-03T10:36:22.584Z,101205.09
2022-10-03T10:37:46.456Z,101208.59
2022-10-03T10:39:20.215Z,101210.48
2022-10-03T10:40:59.924Z,101212.40
2022-10-03T10:42:13.617Z,101212.89
2022-10-03T10:43:52.086Z,101218.48
2022-10-03T10:45:30.978Z,101213.60
2022-10-03T10:47:13.008Z,101212.34
2022-10-03T10:48:20.828Z,101215.54
2022-10-03T10:50:07.724Z,101217.64
2022-10-03T10:51:11.936Z,101222.92
2022-10-03T10:52:22.589Z,101226.67
2022-10-03T10:53:52.089Z,101223.29
2022-10-03T10:55:31.338Z,101223.77
2022-10-03T10:57:01.346Z,101215.94
2022-10-03T10:58:45.310Z,101223.54
2022-10-03T11:00:11.216Z,101223.96
2022-10-03T11:01:31.089Z,101228.02
2022-10-03T11:02:50.804Z,101224.02
2022-10-03T11:04:14.149Z,101217.95
2022-10-03T11:05:40.532Z,101219.93
2022-10-03T11:07:07.488Z,101222.36
2022-10-03T11:08:50.612Z,101219.85
2022-10-03T11:10:30.426Z,101220.52
2022-10-03T11:11:51.438Z,101217.77
2022-10-03T11:13:22.127Z,101218.79
2022-10-03T11:14:45.634Z,101210.73
2022-10-03T11:15:59.044Z,101210.33
2022-10-03T11:17:38.618Z,101210.92
2022-10-03T11:19:08.083Z,101212.73
2022-10-03T11:20:47.356Z,101214.11
2022-10-03T11:22:12.827Z,101220.58
2022-10-03T11:23:37.729Z,101219.90
2022-10-03T11:25:26.939Z,101224.46
2022-10-03T11:27:02.212Z,101226.42
2022-10-03T11:28:27.224Z,101227.70
2022-10-03T11:29:59.013Z,101228.08
2022-10-03T11:31:16.134Z,101225.40
2022-10-03T11:32:55.330Z,101221.27
2022-10-03T11:34:33.566Z,101227.64
2022-10-03T11:36:31.360Z,101232.77
2022-10-03T11:37:57.774Z,101237.13
2022-10-03T11:39:06.065Z,101236.96
2022-10-03T11:40:22.714Z,101235.59
2022-10-03T11:41:39.981Z,101241.60
2022-10-03T11:42:52.136Z,101245.11
2022-10-03T11:44:24.426Z,101245.54
2022-10-03T11:45:32.515Z,101249.86
2022-10-03T11:46:53.107Z,101256.08
2022-10-03T11:48:10.337Z,101254.20
2022-10-03T11:49:30.482Z,101255.34
2022-10-03T11:50:41.340Z,101259.05
2022-10-03T11:52:02.317Z,101259.00
2022-10-03T11:53:07.370Z,101262.97
2022-10-03T11:54:30.485Z,101263.08
2022-10-03T11:55:54.317Z,101260.20
2022-10-03T11:57:13.234Z,101264.48
2022-10-03T11:58:40.600Z,101255.95
2022-10-03T12:00:22.488Z,101255.59
2022-10-03T12:02:21.332Z,101254.54
2022-10-03T12:03:30.083Z,101256.95
2022-10-03T12:04:44.349Z,101261.38
2022-10-03T12:06:26.275Z,101259.44
2022-10-03T12:07:57.552Z,101264.70
2022-10-03T12:09:12.520Z,101260.33
2022-10-03T12:10:24.580Z,101262.82
2022-10-03T12:11:32.565Z,101266.10
2022-10-03T12:12:49.905Z,101269.21
2022-10-03T12:14:12.743Z,101270.83
2022-10-03T12:15:29.299Z,101268.55
2022-10-03T12:17:09.492Z,101267.02
2022-10-03T12:18:49.842Z,101268.84
2022-10-03T12:20:03.473Z,101270.17
2022-10-03T12:21:12.982Z,101265.67
2022-10-03T12:22:41.380Z,101268.25
2022-10-03T12:23:55.140Z,101268.44
2022-10-03T12:25:06.730Z,101265.35
2022-10-03T12:26:16.427Z,101267.48
2022-10-03T12:27:43.864Z,101268.80
2022-10-03T12:28:52.322Z,101262.34
2022-10-03T12:29:58.447Z,101266.45
2022-10-03T12:31:10.415Z,101265.27
2022-10-03T12:32:36.629Z,101267.01
2022-10-03T12:34:15.569Z,101271.39
2022-10-03T12:35:35.508Z,101272.40
2022-10-03T12:36:50.065Z,101268.99
2022-10-03T12:38:06.985Z,101273.67
2022-10-03T12:39:27.623Z,101274.19
2022-10-03T12:41:13.545Z,101276.27
2022-10-03T12:42:31.645Z,101272.36
2022-10-03T12:43:39.296Z,101273.04
2022-10-03T12:44:41.119Z,101276.25
2022-10-03T12:46:01.277Z,101272.73
2022-10-03T12:47:43.895Z,101273.55
2022-10-03T12:49:00.275Z,101273.59
2022-10-03T12:50:14.454Z,101275.79
2022-10-03T12:51:48.648Z,101274.92
2022-10-03T12:53:08.530Z,101275.70
2022-10-03T12:54:38.522Z,101272.95
2022-10-03T12:56:00.438Z,101271.73
2022-10-03T12:57:35.690Z,101271.16
2022-10-03T12:59:07.227Z,101264.00
2022-10-03T13:00:26.334Z,101261.15
2022-10-03T13:01:33.700Z,101258.95
2022-10-03T13:03:02.188Z,101264.63
2022-10-03T13:04:42.087Z,101260.86
2022-10-03T13:06:01.899Z,101266.35
2022-10-03T13:07:18.365Z,101256.56
2022-10-03T13:08:31.659Z,101261.39
2022-10-03T13:09:55.731Z,101257.76
2022-10-03T13:11:17.714Z,101256.25
2022-10-03T13:12:45.532Z,101260.61
2022-10-03T13:13:58.705Z,101264.59
2022-10-03T13:15:19.011Z,101259.77
2022-10-03T13:16:34.739Z,101260.00
2022-10-03T13:17:55.291Z,101257.73
2022-10-03T13:19:09.208Z,101260.39
2022-10-03T13:20:25.992Z,101257.84
2022-10-03T13:21:45.863Z,101259.20
2022-10-03T13:23:13.518Z,101261.14
2022-10-03T13:24:17.662Z,101264.80
2022-10-03T13:25:24.672Z,101266.19
2022-10-03T13:26:51.061Z,101261.76
2022-10-03T13:28:22.012Z,101272.11
2022-10-03T13:29:29.658Z,101272.23
2022-10-03T13:30:50.753Z,101272.85
2022-10-03T13:32:00.824Z,101268.86
2022-10-03T13:33:11.152Z,101274.96
2022-10-03T13:34:20.298Z,101271.45
2022-10-03T13:36:01.004Z,101272.53
2022-10-03T13:37:16.682Z,101278.45
2022-10-03T13:38:40.106Z,101280.75
2022-10-03T13:39:56.787Z,101281.42
2022-10-03T13:41:12.159Z,101279.95
2022-10-03T13:42:22.906Z,101286.86
2022-10-03T13:43:37.131Z,101276.25
2022-10-03T13:44:48.070Z,101283.44
2022-10-03T13:45:56.128Z,101281.61
2022-10-03T13:47:41.115Z,101289.77
2022-10-03T13:48:51.217Z,101283.35
2022-10-03T13:49:56.091Z,101284.73
2022-10-03T13:51:16.991Z,101293.38
2022-10-03T13:52:27.503Z,101291.23
2022-10-03T13:53:41.785Z,101283.41
2022-10-03T13:55:18.034Z,101286.76
2022-10-03T13:56:38.073Z,101285.27
2022-10-03T13:58:15.010Z,101293.20
2022-10-03T13:59:53.925Z,101292.86
2022-10-03T14:01:32.830Z,101292.05
2022-10-03T14:02:59.205Z,101295.66
2022-10-03T14:04:46.187Z,101288.23
2022-10-03T14:06:11.330Z,101290.27
2022-10-03T14:07:35.241Z,101289.61
2022-10-03T14:08:48.895Z,101293.08
2022-10-03T14:09:57.323Z,101294.05
2022-10-03T14:11:21.732Z,101291.80
2022-10-03T14:12:56.138Z,101296.77
2022-10-03T14:14:05.474Z,101296.72
2022-10-03T14:15:26.210Z,101296.43
2022-10-03T14:16:47.318Z,101296.76
2022-10-03T14:17:49.089Z,101296.94
2022-10-03T14:19:09.949Z,101302.72
2022-10-03T14:20:23.781Z,101304.59
2022-10-03T14:21:34.163Z,101304.48
2022-10-03T14:22:50.636Z,101302.27
2022-10-03T14:23:58.069Z,101300.42
2022-10-03T14:25:11.602Z,101301.88
2022-10-03T14:26:35.737Z,101304.32
2022-10-03T14:27:46.323Z,101308.60
2022-10-03T14:29:01.997Z,101311.80
2022-10-03T14:30:09.554Z,101315.27
2022-10-03T14:31:45.560Z,101309.91
2022-10-03T14:32:52.674Z,101317.23
2022-10-03T14:34:00.688Z,101315.48
2022-10-03T14:35:28.713Z,101315.00
2022-10-03T14:36:51.361Z,101315.44
2022-10-03T14:38:06.267Z,101311.77
2022-10-03T14:39:25.174Z,101312.97
2022-10-03T14:40:36.020Z,101310.27
2022-10-03T14:41:52.065Z,101308.45
2022-10-03T14:43:18.963Z,101312.30
2022-10-03T14:44:28.450Z,101307.33
2022-10-03T14:45:36.945Z,101306.15
2022-10-03T14:46:43.758Z,101309.11
2022-10-03T14:47:53.325Z,101306.65
2022-10-03T14:49:02.965Z,101310.04
2022-10-03T14:50:06.130Z,101309.94
2022-10-03T14:51:32.631Z,101309.57
2022-10-03T14:53:06.676Z,101309.67
2022-10-03T14:54:19.675Z,101307.61
2022-10-03T14:55:30.019Z,101311.44
2022-10-03T14:56:42.610Z,101311.30
2022-10-03T14:58:09.395Z,101311.34
2022-10-03T14:59:19.375Z,101313.33
2022-10-03T15:00:44.620Z,101315.67
2022-10-03T15:01:49.711Z,101310.40
2022-10-03T15:02:51.545Z,101313.50
2022-10-03T15:04:07.446Z,101314.98
2022-10-03T15:05:34.550Z,101309.42
2022-10-03T15:06:45.777Z,101314.09
2022-10-03T15:07:48.060Z,101313.88
2022-10-03T15:08:54.292Z,101308.98
2022-10-03T15:09:57.909Z,101314.79
2022-10-03T15:11:00.929Z,101314.74
2022-10-03T15:12:23.604Z,101314.23
2022-10-03T15:13:27.133Z,101316.63
2022-10-03T15:14:32.914Z,101318.27
2022-10-03T15:15:38.912Z,101312.42
2022-10-03T15:16:49.361Z,101317.35
2022-10-03T15:17:54.075Z,101314.61
2022-10-03T15:19:04.889Z,101315.71
2022-10-03T15:20:11.287Z,101321.45
2022-10-03T15:21:15.473Z,101323.05
2022-10-03T15:22:35.757Z,101324.77
2022-10-03T15:23:42.727Z,101324.59
2022-10-03T15:24:46.123Z,101326.41
2022-10-03T15:25:53.258Z,101325.48
2022-10-03T15:27:01.302Z,101324.29
2022-10-03T15:28:08.152Z,101321.15
2022-10-03T15:29:17.178Z,101327.76